»·PEaware :: CKS401 KLAS-KTPA

CKS401 :: KLAS-KTPA

FLIGHT INFORMATION

Flight Status: Arrived
Operator:
Kalitta Air
More flights by this operator :: More flights under this callsign
Pilot: Mark R. (12792)
Aircraft: BOEING 747-400 (WINGLETS)
(B744)
More flights by this aircraft type
Origin: KLAS McCarran Intl
United States
Destination: KTPA Tampa Intl
United States
More flights between these airports :: More routes between these airports
Route: +COWBY6 GUP J72 SPS ELD MEI SZW FOOXX4
File this flight plan on PilotEdge
Remarks:
Altitude:
(Current/Filed)
35,000ft
Speed:
(Current/Filed)
300kts
Departed: 05-Feb-17 01:02 PM
Arrived: 05-Feb-17 03:09 PM
Distance/Time
Traveled:
1720nm/2:07
Distance/Time
To Go:
Arrived

Flight Plot

Page will automatically refresh every two minutes.

Flight plan parsing failed; only flown route is shown


Map Options




Map Legend


Flown Route
Filed Route
Departure Airport
Arrival Airport
Navaid (VOR, NDB)
Fix

Horizontal Profiles

Position Reports

Time Latitude Longitude Heading Altitude Ground
Speed
05-Feb-17 12:31 36.082645 -115.129536 89 2128ft 0kts
05-Feb-17 12:32 36.082645 -115.129536 89 2128ft 0kts
05-Feb-17 12:33 36.082645 -115.129536 89 2128ft 0kts
05-Feb-17 12:34 36.082645 -115.129536 89 2128ft 0kts
05-Feb-17 12:35 36.082645 -115.129536 89 2128ft 0kts
05-Feb-17 12:36 36.082645 -115.129536 89 2128ft 0kts
05-Feb-17 12:37 36.082645 -115.129536 89 2128ft 0kts
05-Feb-17 12:38 36.082645 -115.129536 89 2128ft 0kts
05-Feb-17 12:39 36.082657 -115.129539 89 2128ft 0kts
05-Feb-17 12:40 36.082657 -115.129539 89 2128ft 0kts
05-Feb-17 12:41 36.082657 -115.129539 89 2128ft 0kts
05-Feb-17 12:42 36.082657 -115.129539 89 2128ft 0kts
05-Feb-17 12:43 36.082657 -115.129539 89 2128ft 0kts
05-Feb-17 12:44 36.082657 -115.129539 89 2128ft 0kts
05-Feb-17 12:45 36.082657 -115.129539 89 2128ft 0kts
05-Feb-17 12:46 36.082657 -115.129539 89 2128ft 0kts
05-Feb-17 12:47 36.082657 -115.129539 89 2128ft 0kts
05-Feb-17 12:48 36.082657 -115.129539 89 2128ft 0kts
05-Feb-17 12:49 36.082657 -115.129539 89 2128ft 0kts
05-Feb-17 12:50 36.082657 -115.129539 89 2128ft 0kts
05-Feb-17 12:51 36.082679 -115.130245 90 2128ft 0kts
05-Feb-17 12:52 36.082679 -115.130245 91 2128ft 0kts
05-Feb-17 12:53 36.082679 -115.130244 91 2128ft 0kts
05-Feb-17 12:54 36.082679 -115.130243 91 2128ft 0kts
05-Feb-17 12:55 36.082679 -115.130242 91 2128ft 0kts
05-Feb-17 12:56 36.082678 -115.130241 91 2128ft 0kts
05-Feb-17 12:57 36.080906 -115.130196 181 2128ft 13kts
05-Feb-17 12:58 36.078339 -115.128238 90 2128ft 19kts
05-Feb-17 12:59 36.077855 -115.122072 124 2128ft 12kts
05-Feb-17 13:00 36.077656 -115.121734 126 2128ft 0kts
05-Feb-17 13:01 36.076539 -115.121594 247 2128ft 5kts
05-Feb-17 13:02 36.076270 -115.158640 267 2979ft 200kts
05-Feb-17 13:03 36.073693 -115.233587 260 6046ft 235kts
05-Feb-17 13:04 36.033024 -115.297952 193 6698ft 257kts
05-Feb-17 13:05 35.961800 -115.296865 176 7026ft 259kts
05-Feb-17 13:06 35.893391 -115.273440 159 8626ft 277kts
05-Feb-17 13:07 35.846412 -115.200949 101 10693ft 309kts
05-Feb-17 13:08 35.830023 -115.090975 109 12385ft 350kts
05-Feb-17 13:09 35.824364 -114.964843 79 13786ft 403kts
05-Feb-17 13:10 35.843652 -114.820993 82 15496ft 437kts
05-Feb-17 13:11 35.857413 -114.668969 83 17535ft 455kts
05-Feb-17 13:12 35.871819 -114.511625 83 19672ft 470kts
05-Feb-17 13:13 35.886155 -114.347091 83 22099ft 494kts
05-Feb-17 13:14 35.901152 -114.175262 83 24394ft 515kts
05-Feb-17 13:15 35.915944 -113.995779 83 26524ft 534kts
05-Feb-17 13:16 35.910671 -113.811443 101 28330ft 548kts
05-Feb-17 13:17 35.879781 -113.625390 103 29965ft 558kts
05-Feb-17 13:18 35.849847 -113.438814 102 31932ft 554kts
05-Feb-17 13:19 35.820366 -113.252770 103 33651ft 549kts
05-Feb-17 13:20 35.790486 -113.068473 103 35034ft 548kts
05-Feb-17 13:21 35.760334 -112.884586 103 35254ft 548kts
05-Feb-17 13:22 35.729941 -112.701064 103 35260ft 548kts
05-Feb-17 13:23 35.699268 -112.517664 103 35265ft 549kts
05-Feb-17 13:24 35.668149 -112.333409 104 35267ft 549kts
05-Feb-17 13:25 35.637142 -112.149715 104 35269ft 549kts
05-Feb-17 13:26 35.605273 -111.966101 104 35268ft 550kts
05-Feb-17 13:27 35.588434 -111.779538 91 35268ft 553kts
05-Feb-17 13:28 35.584156 -111.590851 91 35266ft 553kts
05-Feb-17 13:29 35.578806 -111.401651 90 35269ft 552kts
05-Feb-17 13:30 35.573305 -111.213349 91 35270ft 552kts
05-Feb-17 13:31 35.567180 -111.024974 91 35270ft 553kts
05-Feb-17 13:32 35.560747 -110.836437 91 35269ft 553kts
05-Feb-17 13:33 35.553973 -110.646906 91 35273ft 555kts
05-Feb-17 13:34 35.546927 -110.457836 91 35269ft 555kts
05-Feb-17 13:35 35.539551 -110.268163 91 35271ft 557kts
05-Feb-17 13:36 35.531872 -110.078341 92 35268ft 558kts
05-Feb-17 13:37 35.523879 -109.888231 92 35272ft 559kts
05-Feb-17 13:38 35.515550 -109.697298 92 35274ft 559kts
05-Feb-17 13:39 35.506951 -109.507249 92 35275ft 558kts
05-Feb-17 13:40 35.498061 -109.317405 92 35280ft 558kts
05-Feb-17 13:41 35.489233 -109.127577 92 35280ft 558kts
05-Feb-17 13:42 35.479370 -108.937229 92 35280ft 558kts
05-Feb-17 13:43 35.453488 -108.750744 105 35282ft 555kts
05-Feb-17 13:44 35.414265 -108.568089 105 35281ft 554kts
05-Feb-17 13:45 35.376860 -108.384511 104 35287ft 556kts
05-Feb-17 13:46 35.339261 -108.200943 105 35298ft 556kts
05-Feb-17 13:47 35.301001 -108.016796 105 35306ft 556kts
05-Feb-17 13:48 35.262596 -107.833431 105 35309ft 557kts
05-Feb-17 13:49 35.223977 -107.650346 105 35310ft 556kts
05-Feb-17 13:50 35.185207 -107.467491 106 35302ft 555kts
05-Feb-17 13:51 35.145775 -107.284712 106 35296ft 555kts
05-Feb-17 13:52 35.106781 -107.102538 106 35292ft 555kts
05-Feb-17 13:53 35.066814 -106.920712 106 35290ft 555kts
05-Feb-17 13:54 35.033341 -106.737212 98 35289ft 557kts
05-Feb-17 13:55 35.011121 -106.549768 99 35289ft 559kts
05-Feb-17 13:56 34.988439 -106.361738 99 35284ft 559kts
05-Feb-17 13:57 34.964604 -106.174685 99 35275ft 559kts
05-Feb-17 13:58 34.940794 -105.987732 99 35271ft 559kts
05-Feb-17 13:59 34.916330 -105.800817 99 35260ft 559kts
05-Feb-17 14:00 34.892077 -105.612951 99 35250ft 560kts
05-Feb-17 14:01 34.867677 -105.426109 99 35244ft 559kts
05-Feb-17 14:02 34.842746 -105.239463 99 35234ft 559kts
05-Feb-17 14:03 34.817522 -105.052984 99 35232ft 559kts
05-Feb-17 14:04 34.792010 -104.866472 99 35220ft 559kts
05-Feb-17 14:05 34.766123 -104.679489 100 35185ft 559kts
05-Feb-17 14:06 34.740093 -104.493639 100 35173ft 558kts
05-Feb-17 14:07 34.713773 -104.307863 100 35171ft 558kts
05-Feb-17 14:08 34.687161 -104.122130 100 35174ft 558kts
05-Feb-17 14:09 34.660278 -103.936571 100 35177ft 559kts
05-Feb-17 14:10 34.632943 -103.750002 100 35180ft 560kts
05-Feb-17 14:11 34.605407 -103.564146 100 35184ft 560kts
05-Feb-17 14:12 34.577598 -103.378499 100 35185ft 560kts
05-Feb-17 14:13 34.549695 -103.192821 100 35185ft 561kts
05-Feb-17 14:14 34.521141 -103.006518 101 35188ft 560kts
05-Feb-17 14:15 34.492705 -102.820679 99 35189ft 562kts
05-Feb-17 14:16 34.473656 -102.632597 97 35185ft 564kts
05-Feb-17 14:17 34.453769 -102.444309 97 35184ft 564kts
05-Feb-17 14:18 34.434433 -102.255861 97 35190ft 564kts
05-Feb-17 14:19 34.414187 -102.067053 97 35194ft 564kts
05-Feb-17 14:20 34.383200 -101.772897 96 35201ft 566kts
05-Feb-17 14:21 34.296841 -101.018891 97 35221ft 568kts
05-Feb-17 14:22 34.205405 -100.261709 99 35252ft 571kts
05-Feb-17 14:23 34.110367 -99.501939 99 35265ft 571kts
05-Feb-17 14:24 34.009487 -98.746008 99 35265ft 572kts
05-Feb-17 14:25 33.929031 -97.985094 97 35300ft 574kts
05-Feb-17 14:26 33.844664 -97.225581 97 35340ft 572kts
05-Feb-17 14:27 33.757747 -96.470171 97 35358ft 572kts
05-Feb-17 14:28 33.665640 -95.710683 98 35388ft 573kts
05-Feb-17 14:29 33.569387 -94.958635 98 35417ft 570kts
05-Feb-17 14:30 33.468825 -94.208660 98 35448ft 571kts
05-Feb-17 14:31 33.363234 -93.460367 99 35465ft 569kts
05-Feb-17 14:32 33.252427 -92.717952 99 35478ft 568kts
05-Feb-17 14:33 33.100486 -91.987083 103 35483ft 566kts
05-Feb-17 14:34 32.944782 -91.262760 104 35484ft 564kts
05-Feb-17 14:35 32.786148 -90.542807 104 35478ft 562kts
05-Feb-17 14:36 32.623049 -89.829362 105 35463ft 559kts
05-Feb-17 14:37 32.455199 -89.117851 105 35482ft 560kts
05-Feb-17 14:38 32.241529 -88.432080 119 35490ft 552kts
05-Feb-17 14:39 31.980668 -87.777934 116 35479ft 551kts
05-Feb-17 14:40 31.718444 -87.129030 116 35463ft 549kts
05-Feb-17 14:41 31.455120 -86.485488 116 35449ft 548kts
05-Feb-17 14:42 31.188189 -85.843541 117 35436ft 547kts
05-Feb-17 14:43 30.919882 -85.210940 116 35440ft 543kts
05-Feb-17 14:44 30.649361 -84.584430 117 35441ft 541kts
05-Feb-17 14:45 30.235135 -84.179429 160 35471ft 506kts
05-Feb-17 14:46 29.890148 -83.941966 150 35244ft 508kts
05-Feb-17 14:47 29.766326 -83.858875 154 33206ft 517kts
05-Feb-17 14:48 29.640456 -83.778248 154 31209ft 521kts
05-Feb-17 14:49 29.514403 -83.697335 154 29212ft 513kts
05-Feb-17 14:50 29.391974 -83.618518 153 27215ft 497kts
05-Feb-17 14:51 29.272829 -83.542503 153 25215ft 481kts
05-Feb-17 14:52 29.163701 -83.457248 142 23218ft 471kts
05-Feb-17 14:53 29.063842 -83.363829 142 21220ft 456kts
05-Feb-17 14:54 28.966869 -83.274494 142 19221ft 440kts
05-Feb-17 14:55 28.873278 -83.188015 142 17223ft 426kts
05-Feb-17 14:56 28.782425 -83.104558 142 15225ft 410kts
05-Feb-17 14:57 28.694988 -83.024496 142 13232ft 396kts
05-Feb-17 14:58 28.610407 -82.947217 142 11257ft 383kts
05-Feb-17 14:59 28.532051 -82.875744 141 10575ft 338kts
05-Feb-17 15:00 28.463224 -82.813045 140 9958ft 300kts
05-Feb-17 15:01 28.400560 -82.755972 139 8745ft 292kts
05-Feb-17 15:02 28.337720 -82.698839 139 7328ft 287kts
05-Feb-17 15:03 28.276627 -82.643641 139 5903ft 284kts
05-Feb-17 15:04 28.217881 -82.590064 137 4774ft 272kts
05-Feb-17 15:05 28.164149 -82.531307 143 3434ft 268kts
05-Feb-17 15:06 28.092575 -82.532486 187 2083ft 246kts
05-Feb-17 15:07 28.032430 -82.539812 175 798ft 182kts
05-Feb-17 15:08 27.988837 -82.541401 174 41ft 139kts
05-Feb-17 15:09 27.968838 -82.542130 187 39ft 0kts

Navigation Log

Ident Type
Flight plan parsing failed, navigation log unavailable